createdAt,value
2022-11-27T00:00:04.387Z,0.31
2022-11-27T00:01:04.468Z,0.31
2022-11-27T00:02:04.562Z,0.31
2022-11-27T00:03:04.519Z,0.31
2022-11-27T00:04:03.557Z,0.31
2022-11-27T00:05:03.585Z,0.31
2022-11-27T00:06:03.589Z,0.31
2022-11-27T00:07:03.740Z,0.31
2022-11-27T00:08:03.660Z,0.31
2022-11-27T00:09:03.671Z,0.25
2022-11-27T00:10:03.582Z,0.25
2022-11-27T00:11:03.590Z,0.25
2022-11-27T00:12:03.582Z,0.25
2022-11-27T00:13:03.663Z,0.25
2022-11-27T00:14:03.575Z,0.25
2022-11-27T00:15:03.669Z,0.25
2022-11-27T00:16:03.747Z,0.25
2022-11-27T00:17:03.659Z,0.19
2022-11-27T00:18:03.780Z,0.19
2022-11-27T00:19:03.668Z,0.19
2022-11-27T00:20:03.825Z,0.19
2022-11-27T00:21:03.742Z,0.19
2022-11-27T00:22:03.817Z,0.19
2022-11-27T00:23:03.826Z,0.12
2022-11-27T00:24:03.741Z,0.12
2022-11-27T00:25:03.746Z,0.12
2022-11-27T00:26:03.684Z,0.12
2022-11-27T00:27:03.664Z,0.12
2022-11-27T00:28:03.661Z,0.12
2022-11-27T00:29:03.910Z,0.12
2022-11-27T00:30:03.815Z,0.12
2022-11-27T00:31:03.941Z,0.12
2022-11-27T00:32:03.826Z,0.12
2022-11-27T00:33:03.909Z,0.12
2022-11-27T00:34:03.825Z,0.12
2022-11-27T00:35:03.821Z,0.12
2022-11-27T00:36:03.916Z,0.12
2022-11-27T00:37:03.744Z,0.12
2022-11-27T00:38:03.747Z,0.12
2022-11-27T00:39:03.755Z,0.12
2022-11-27T00:40:03.751Z,0.06
2022-11-27T00:41:03.838Z,0.06
2022-11-27T00:42:03.823Z,0.06
2022-11-27T00:43:03.746Z,0.06
2022-11-27T00:44:03.585Z,0.06
2022-11-27T00:45:03.582Z,0.06
2022-11-27T00:46:03.726Z,0.06
2022-11-27T00:47:03.700Z,0.06
2022-11-27T00:48:03.665Z,0.00
2022-11-27T00:49:03.590Z,0.00
2022-11-27T00:50:03.587Z,0.00
2022-11-27T00:51:03.670Z,0.00
2022-11-27T00:52:03.585Z,0.00
2022-11-27T00:53:03.588Z,0.00
2022-11-27T00:54:03.672Z,0.00
2022-11-27T00:55:03.502Z,0.00
2022-11-27T00:56:03.497Z,0.00
2022-11-27T00:57:03.420Z,0.00
2022-11-27T00:58:03.498Z,0.00
2022-11-27T00:59:03.427Z,0.00
2022-11-27T01:00:03.428Z,0.00
2022-11-27T01:01:03.660Z,0.00
2022-11-27T01:02:03.657Z,0.00
2022-11-27T01:03:04.118Z,-0.06
2022-11-27T01:04:04.074Z,-0.06
2022-11-27T01:05:03.899Z,-0.06
2022-11-27T01:06:03.822Z,-0.06
2022-11-27T01:07:03.824Z,-0.06
2022-11-27T01:08:03.827Z,-0.06
2022-11-27T01:09:03.747Z,-0.06
2022-11-27T01:10:04.068Z,-0.06
2022-11-27T01:11:03.986Z,-0.06
2022-11-27T01:12:03.988Z,-0.06
2022-11-27T01:13:04.024Z,-0.06
2022-11-27T01:14:03.983Z,-0.06
2022-11-27T01:15:03.898Z,-0.12
2022-11-27T01:16:03.915Z,-0.06
2022-11-27T01:17:03.746Z,-0.06
2022-11-27T01:18:03.661Z,-0.12
2022-11-27T01:19:03.736Z,-0.12
2022-11-27T01:20:03.781Z,-0.12
2022-11-27T01:21:03.673Z,-0.12
2022-11-27T01:22:03.586Z,-0.12
2022-11-27T01:23:04.461Z,-0.12
2022-11-27T01:24:04.389Z,-0.12
2022-11-27T01:25:04.364Z,-0.12
2022-11-27T01:26:03.741Z,-0.12
2022-11-27T01:27:03.673Z,-0.12
2022-11-27T01:28:04.026Z,-0.12
2022-11-27T01:29:03.583Z,-0.12
2022-11-27T01:30:03.664Z,-0.12
2022-11-27T01:31:03.717Z,-0.12
2022-11-27T01:32:03.585Z,-0.12
2022-11-27T01:33:03.588Z,-0.19
2022-11-27T01:34:03.657Z,-0.19
2022-11-27T01:35:03.586Z,-0.19
2022-11-27T01:36:03.598Z,-0.19
2022-11-27T01:37:03.577Z,-0.19
2022-11-27T01:38:03.583Z,-0.19
2022-11-27T01:39:03.432Z,-0.19
2022-11-27T01:40:04.386Z,-0.19
2022-11-27T01:41:04.301Z,-0.19
2022-11-27T01:42:04.221Z,-0.19
2022-11-27T01:43:04.148Z,-0.19
2022-11-27T01:44:04.060Z,-0.19
2022-11-27T01:45:04.059Z,-0.19
2022-11-27T01:46:03.954Z,-0.19
2022-11-27T01:47:03.902Z,-0.19
2022-11-27T01:48:03.902Z,-0.19
2022-11-27T01:49:03.734Z,-0.19
2022-11-27T01:50:03.657Z,-0.19
2022-11-27T01:51:03.782Z,-0.25
2022-11-27T01:52:03.659Z,-0.19
2022-11-27T01:53:03.664Z,-0.25
2022-11-27T01:54:03.744Z,-0.25
2022-11-27T01:55:03.743Z,-0.19
2022-11-27T01:56:03.750Z,-0.25
2022-11-27T01:57:03.665Z,-0.25
2022-11-27T01:58:03.660Z,-0.25
2022-11-27T01:59:03.669Z,-0.25
2022-11-27T02:00:03.664Z,-0.25
2022-11-27T02:01:03.584Z,-0.25
2022-11-27T02:02:03.669Z,-0.25
2022-11-27T02:03:03.594Z,-0.25
2022-11-27T02:04:04.473Z,-0.25
2022-11-27T02:05:04.388Z,-0.25
2022-11-27T02:06:04.302Z,-0.25
2022-11-27T02:07:04.301Z,-0.25
2022-11-27T02:08:04.224Z,-0.25
2022-11-27T02:09:04.151Z,-0.25
2022-11-27T02:10:04.072Z,-0.25
2022-11-27T02:11:04.061Z,-0.25
2022-11-27T02:12:04.150Z,-0.25
2022-11-27T02:13:04.064Z,-0.31
2022-11-27T02:14:03.980Z,-0.31
2022-11-27T02:15:03.903Z,-0.25
2022-11-27T02:16:03.912Z,-0.25
2022-11-27T02:17:03.993Z,-0.25
2022-11-27T02:19:04.142Z,-0.31
2022-11-27T02:20:04.065Z,-0.31
2022-11-27T02:21:04.061Z,-0.25
2022-11-27T02:22:04.065Z,-0.31
2022-11-27T02:23:03.977Z,-0.31
2022-11-27T02:24:03.983Z,-0.31
2022-11-27T02:25:03.986Z,-0.31
2022-11-27T02:26:03.905Z,-0.31
2022-11-27T02:27:03.819Z,-0.31
2022-11-27T02:28:03.914Z,-0.31
2022-11-27T02:29:03.744Z,-0.31
2022-11-27T02:30:03.751Z,-0.31
2022-11-27T02:31:03.810Z,-0.31
2022-11-27T02:32:03.590Z,-0.31
2022-11-27T02:33:03.513Z,-0.31
2022-11-27T02:34:04.467Z,-0.31
2022-11-27T02:35:04.300Z,-0.31
2022-11-27T02:36:04.231Z,-0.31
2022-11-27T02:37:04.232Z,-0.31
2022-11-27T02:38:04.141Z,-0.31
2022-11-27T02:39:04.146Z,-0.31
2022-11-27T02:40:03.996Z,-0.31
2022-11-27T02:41:04.056Z,-0.31
2022-11-27T02:42:04.066Z,-0.31
2022-11-27T02:43:03.992Z,-0.38
2022-11-27T02:44:03.982Z,-0.38
2022-11-27T02:45:04.058Z,-0.38
2022-11-27T02:46:04.038Z,-0.38
2022-11-27T02:47:03.915Z,-0.38
2022-11-27T02:48:03.823Z,-0.38
2022-11-27T02:49:03.738Z,-0.38
2022-11-27T02:50:03.663Z,-0.38
2022-11-27T02:51:03.747Z,-0.38
2022-11-27T02:52:03.668Z,-0.44
2022-11-27T02:53:03.585Z,-0.44
2022-11-27T02:54:03.515Z,-0.44
2022-11-27T02:55:04.379Z,-0.44
2022-11-27T02:56:04.303Z,-0.44
2022-11-27T02:57:04.304Z,-0.44
2022-11-27T02:58:04.299Z,-0.44
2022-11-27T02:59:04.223Z,-0.44
2022-11-27T03:00:04.227Z,-0.44
2022-11-27T03:01:04.223Z,-0.50
2022-11-27T03:02:04.109Z,-0.50
2022-11-27T03:03:04.189Z,-0.50
2022-11-27T03:04:04.143Z,-0.50
2022-11-27T03:05:04.060Z,-0.50
2022-11-27T03:06:04.062Z,-0.50
2022-11-27T03:07:04.149Z,-0.50
2022-11-27T03:08:04.060Z,-0.50
2022-11-27T03:09:04.067Z,-0.50
2022-11-27T03:10:03.986Z,-0.50
2022-11-27T03:11:03.979Z,-0.50
2022-11-27T03:12:03.906Z,-0.50
2022-11-27T03:13:03.898Z,-0.50
2022-11-27T03:14:03.817Z,-0.50
2022-11-27T03:15:03.853Z,-0.50
2022-11-27T03:16:03.811Z,-0.50
2022-11-27T03:17:03.826Z,-0.56
2022-11-27T03:18:03.772Z,-0.56
2022-11-27T03:19:03.746Z,-0.56
2022-11-27T03:20:03.906Z,-0.56
2022-11-27T03:21:03.744Z,-0.56
2022-11-27T03:22:03.684Z,-0.56
2022-11-27T03:23:03.823Z,-0.56
2022-11-27T03:24:03.760Z,-0.56
2022-11-27T03:25:03.746Z,-0.56
2022-11-27T03:26:03.823Z,-0.56
2022-11-27T03:27:04.081Z,-0.62
2022-11-27T03:28:03.984Z,-0.62
2022-11-27T03:29:03.980Z,-0.62
2022-11-27T03:30:03.908Z,-0.62
2022-11-27T03:31:03.777Z,-0.62
2022-11-27T03:32:03.738Z,-0.62
2022-11-27T03:33:03.747Z,-0.62
2022-11-27T03:34:03.749Z,-0.62
2022-11-27T03:35:03.827Z,-0.62
2022-11-27T03:36:03.738Z,-0.62
2022-11-27T03:37:03.750Z,-0.69
2022-11-27T03:38:03.741Z,-0.69
2022-11-27T03:39:03.593Z,-0.69
2022-11-27T03:40:03.606Z,-0.69
2022-11-27T03:41:03.504Z,-0.69
2022-11-27T03:42:03.510Z,-0.69
2022-11-27T03:43:03.504Z,-0.69
2022-11-27T03:44:03.422Z,-0.69
2022-11-27T03:45:04.380Z,-0.69
2022-11-27T03:46:04.450Z,-0.69
2022-11-27T03:47:04.276Z,-0.69
2022-11-27T03:48:04.224Z,-0.69
2022-11-27T03:49:04.227Z,-0.75
2022-11-27T03:50:04.063Z,-0.75
2022-11-27T03:51:04.062Z,-0.75
2022-11-27T03:52:03.897Z,-0.75
2022-11-27T03:53:03.827Z,-0.75
2022-11-27T03:54:03.669Z,-0.75
2022-11-27T03:55:03.739Z,-0.75
2022-11-27T03:56:08.517Z,-0.75
2022-11-27T03:57:03.668Z,-0.75
2022-11-27T03:58:03.578Z,-0.75
2022-11-27T03:59:03.662Z,-0.75
2022-11-27T04:00:03.508Z,-0.75
2022-11-27T04:01:03.594Z,-0.75
2022-11-27T04:02:03.615Z,-0.81
2022-11-27T04:03:03.431Z,-0.81
2022-11-27T04:04:04.400Z,-0.81
2022-11-27T04:05:04.223Z,-0.81
2022-11-27T04:06:04.305Z,-0.81
2022-11-27T04:07:04.144Z,-0.81
2022-11-27T04:08:04.227Z,-0.81
2022-11-27T04:09:04.145Z,-0.81
2022-11-27T04:10:03.817Z,-0.81
2022-11-27T04:11:03.917Z,-0.81
2022-11-27T04:12:03.820Z,-0.81
2022-11-27T04:13:03.826Z,-0.81
2022-11-27T04:14:03.834Z,-0.81
2022-11-27T04:15:03.749Z,-0.81
2022-11-27T04:16:03.736Z,-0.81
2022-11-27T04:17:03.663Z,-0.81
2022-11-27T04:18:03.588Z,-0.81
2022-11-27T04:19:03.663Z,-0.81
2022-11-27T04:20:03.670Z,-0.81
2022-11-27T04:21:03.584Z,-0.81
2022-11-27T04:22:03.517Z,-0.81
2022-11-27T04:23:04.382Z,-0.81
2022-11-27T04:24:04.305Z,-0.81
2022-11-27T04:25:04.224Z,-0.81
2022-11-27T04:26:04.224Z,-0.75
2022-11-27T04:27:04.142Z,-0.81
2022-11-27T04:28:04.058Z,-0.81
2022-11-27T04:29:03.976Z,-0.81
2022-11-27T04:30:04.000Z,-0.81
2022-11-27T04:31:03.971Z,-0.81
2022-11-27T04:32:03.737Z,-0.81
2022-11-27T04:33:03.986Z,-0.81
2022-11-27T04:34:03.983Z,-0.81
2022-11-27T04:35:03.902Z,-0.81
2022-11-27T04:36:03.904Z,-0.81
2022-11-27T04:37:03.758Z,-0.81
2022-11-27T04:38:03.994Z,-0.81
2022-11-27T04:39:03.822Z,-0.81
2022-11-27T04:40:03.830Z,-0.81
2022-11-27T04:41:03.667Z,-0.81
2022-11-27T04:42:03.748Z,-0.81
2022-11-27T04:43:03.832Z,-0.81
2022-11-27T04:44:03.906Z,-0.81
2022-11-27T04:45:03.912Z,-0.81
2022-11-27T04:46:03.749Z,-0.81
2022-11-27T04:47:03.804Z,-0.81
2022-11-27T04:48:03.661Z,-0.81
2022-11-27T04:49:03.746Z,-0.81
2022-11-27T04:50:03.824Z,-0.81
2022-11-27T04:51:03.748Z,-0.81
2022-11-27T04:52:03.827Z,-0.81
2022-11-27T04:53:03.667Z,-0.81
2022-11-27T04:54:03.588Z,-0.81
2022-11-27T04:55:03.576Z,-0.81
2022-11-27T04:56:03.580Z,-0.81
2022-11-27T04:57:03.502Z,-0.81
2022-11-27T04:58:04.383Z,-0.81
2022-11-27T04:59:04.391Z,-0.81
2022-11-27T05:00:04.379Z,-0.81
2022-11-27T05:01:04.481Z,-0.81
2022-11-27T05:02:04.308Z,-0.88
2022-11-27T05:03:04.350Z,-0.88
2022-11-27T05:04:04.226Z,-0.88
2022-11-27T05:05:04.225Z,-0.88
2022-11-27T05:06:04.225Z,-0.88
2022-11-27T05:07:04.144Z,-0.88
2022-11-27T05:08:04.066Z,-0.88
2022-11-27T05:09:03.987Z,-0.88
2022-11-27T05:10:03.912Z,-0.88
2022-11-27T05:11:03.823Z,-0.88
2022-11-27T05:12:03.904Z,-0.88
2022-11-27T05:13:03.824Z,-0.88
2022-11-27T05:14:03.748Z,-0.88
2022-11-27T05:15:04.704Z,-0.88
2022-11-27T05:16:03.796Z,-0.88
2022-11-27T05:17:03.680Z,-0.88
2022-11-27T05:18:03.686Z,-0.88
2022-11-27T05:19:03.508Z,-0.88
2022-11-27T05:20:03.752Z,-0.88
2022-11-27T05:21:03.746Z,-0.88
2022-11-27T05:22:03.666Z,-0.88
2022-11-27T05:23:03.750Z,-0.88
2022-11-27T05:24:03.950Z,-0.88
2022-11-27T05:25:03.940Z,-0.88
2022-11-27T05:26:03.907Z,-0.88
2022-11-27T05:27:03.902Z,-0.88
2022-11-27T05:28:03.771Z,-0.88
2022-11-27T05:29:03.760Z,-0.88
2022-11-27T05:30:03.601Z,-0.88
2022-11-27T05:31:03.657Z,-0.88
2022-11-27T05:32:03.540Z,-0.88
2022-11-27T05:33:03.602Z,-0.88
2022-11-27T05:34:03.424Z,-0.88
2022-11-27T05:35:03.533Z,-0.88
2022-11-27T05:36:04.309Z,-0.88
2022-11-27T05:37:03.509Z,-0.88
2022-11-27T05:38:04.309Z,-0.88
2022-11-27T05:39:04.403Z,-0.88
2022-11-27T05:40:03.999Z,-0.88
2022-11-27T05:41:04.066Z,-0.88
2022-11-27T05:42:03.899Z,-0.88
2022-11-27T05:43:03.984Z,-0.81
2022-11-27T05:44:04.082Z,-0.88
2022-11-27T05:45:03.906Z,-0.88
2022-11-27T05:46:03.825Z,-0.88
2022-11-27T05:47:03.850Z,-0.88
2022-11-27T05:48:03.828Z,-0.88
2022-11-27T05:49:03.744Z,-0.88
2022-11-27T05:50:03.585Z,-0.88
2022-11-27T05:51:03.664Z,-0.88
2022-11-27T05:52:03.670Z,-0.88
2022-11-27T05:53:03.656Z,-0.88
2022-11-27T05:54:03.745Z,-0.94
2022-11-27T05:55:03.666Z,-0.94
2022-11-27T05:56:03.760Z,-0.94
2022-11-27T05:57:03.584Z,-0.94
2022-11-27T05:58:03.592Z,-0.94
2022-11-27T05:59:03.429Z,-0.94
2022-11-27T06:00:04.302Z,-0.94
2022-11-27T06:01:04.299Z,-0.94
2022-11-27T06:02:04.375Z,-0.94
2022-11-27T06:03:04.419Z,-0.94
2022-11-27T06:04:04.398Z,-0.94
2022-11-27T06:05:04.221Z,-1.00
2022-11-27T06:06:04.226Z,-1.00
2022-11-27T06:07:04.151Z,-1.00
2022-11-27T06:08:04.068Z,-1.00
2022-11-27T06:09:08.037Z,-1.00
2022-11-27T06:10:04.068Z,-1.00
2022-11-27T06:11:03.983Z,-1.00
2022-11-27T06:12:03.907Z,-1.00
2022-11-27T06:13:03.829Z,-1.00
2022-11-27T06:14:03.739Z,-1.00
2022-11-27T06:15:03.745Z,-1.00
2022-11-27T06:16:03.763Z,-1.06
2022-11-27T06:17:03.824Z,-1.06
2022-11-27T06:18:03.848Z,-1.06
2022-11-27T06:19:03.684Z,-1.00
2022-11-27T06:20:03.683Z,-1.06
2022-11-27T06:21:03.668Z,-1.06
2022-11-27T06:22:03.590Z,-1.06
2022-11-27T06:23:03.581Z,-1.06
2022-11-27T06:24:03.825Z,-1.06
2022-11-27T06:25:03.699Z,-1.06
2022-11-27T06:26:04.069Z,-1.12
2022-11-27T06:27:04.143Z,-1.12
2022-11-27T06:28:04.062Z,-1.12
2022-11-27T06:29:04.226Z,-1.12
2022-11-27T06:30:04.136Z,-1.12
2022-11-27T06:31:04.138Z,-1.12
2022-11-27T06:32:04.079Z,-1.12
2022-11-27T06:33:04.062Z,-1.12
2022-11-27T06:34:03.983Z,-1.12
2022-11-27T06:35:03.985Z,-1.12
2022-11-27T06:36:04.065Z,-1.12
2022-11-27T06:37:04.814Z,-1.12
2022-11-27T06:38:03.827Z,-1.19
2022-11-27T06:39:03.754Z,-1.19
2022-11-27T06:40:03.663Z,-1.19
2022-11-27T06:41:03.590Z,-1.19
2022-11-27T06:42:03.512Z,-1.19
2022-11-27T06:43:04.459Z,-1.19
2022-11-27T06:44:04.301Z,-1.19
2022-11-27T06:45:04.307Z,-1.19
2022-11-27T06:46:04.442Z,-1.19
2022-11-27T06:47:04.216Z,-1.19
2022-11-27T06:48:04.247Z,-1.19
2022-11-27T06:49:04.230Z,-1.19
2022-11-27T06:50:04.143Z,-1.19
2022-11-27T06:51:04.068Z,-1.19
2022-11-27T06:52:03.986Z,-1.19
2022-11-27T06:53:04.030Z,-1.19
2022-11-27T06:54:03.904Z,-1.19
2022-11-27T06:55:03.822Z,-1.19
2022-11-27T06:56:03.747Z,-1.19
2022-11-27T06:57:03.752Z,-1.19
2022-11-27T06:58:03.657Z,-1.19
2022-11-27T06:59:03.666Z,-1.19
2022-11-27T07:00:03.796Z,-1.19
2022-11-27T07:01:03.844Z,-1.19
2022-11-27T07:02:03.832Z,-1.19
2022-11-27T07:03:03.585Z,-1.19
2022-11-27T07:04:04.227Z,-1.19
2022-11-27T07:05:04.219Z,-1.19
2022-11-27T07:06:04.226Z,-1.19
2022-11-27T07:07:04.226Z,-1.19
2022-11-27T07:08:04.326Z,-1.19
2022-11-27T07:09:04.311Z,-1.19
2022-11-27T07:10:04.219Z,-1.12
2022-11-27T07:11:04.152Z,-1.12
2022-11-27T07:12:04.153Z,-1.12
2022-11-27T07:13:04.067Z,-1.12
2022-11-27T07:14:03.994Z,-1.12
2022-11-27T07:15:04.469Z,-1.12
2022-11-27T07:16:03.916Z,-1.12
2022-11-27T07:17:04.019Z,-1.12
2022-11-27T07:18:03.823Z,-1.12
2022-11-27T07:19:03.752Z,-1.06
2022-11-27T07:20:03.909Z,-1.06
2022-11-27T07:21:03.827Z,-1.12
2022-11-27T07:22:03.748Z,-1.12
2022-11-27T07:23:03.905Z,-1.12
2022-11-27T07:24:03.830Z,-1.06
2022-11-27T07:25:03.818Z,-1.06
2022-11-27T07:26:03.758Z,-1.06
2022-11-27T07:27:03.662Z,-1.06
2022-11-27T07:28:03.580Z,-1.06
2022-11-27T07:29:03.669Z,-1.06
2022-11-27T07:30:03.753Z,-1.00
2022-11-27T07:31:03.834Z,-1.00
2022-11-27T07:32:04.079Z,-1.00
2022-11-27T07:33:03.990Z,-1.00
2022-11-27T07:34:06.823Z,-1.00
2022-11-27T07:35:04.146Z,-1.00
2022-11-27T07:36:04.058Z,-0.94
2022-11-27T07:37:04.154Z,-0.94
2022-11-27T07:38:04.151Z,-0.94
2022-11-27T07:39:04.224Z,-0.94
2022-11-27T07:40:04.089Z,-0.94
2022-11-27T07:41:04.077Z,-0.94
2022-11-27T07:42:23.387Z,-0.88
2022-11-27T07:43:04.065Z,-0.88
2022-11-27T07:44:04.147Z,-0.88
2022-11-27T07:45:04.144Z,-0.88
2022-11-27T07:46:04.212Z,-0.81
2022-11-27T07:47:04.146Z,-0.81
2022-11-27T07:48:04.068Z,-0.81
2022-11-27T07:49:04.058Z,-0.81
2022-11-27T07:50:04.193Z,-0.81
2022-11-27T07:51:04.239Z,-0.75
2022-11-27T07:52:04.066Z,-0.75
2022-11-27T07:53:04.141Z,-0.75
2022-11-27T07:54:04.182Z,-0.69
2022-11-27T07:55:04.227Z,-0.69
2022-11-27T07:56:04.308Z,-0.69
2022-11-27T07:57:04.307Z,-0.62
2022-11-27T07:58:04.308Z,-0.62
2022-11-27T07:59:04.387Z,-0.62
2022-11-27T08:00:04.307Z,-0.62
2022-11-27T08:01:04.280Z,-0.56
2022-11-27T08:02:04.151Z,-0.56
2022-11-27T08:03:04.069Z,-0.56
2022-11-27T08:04:03.924Z,-0.56
2022-11-27T08:05:06.999Z,-0.50
2022-11-27T08:06:03.833Z,-0.50
2022-11-27T08:07:03.659Z,-0.44
2022-11-27T08:08:03.647Z,-0.44
2022-11-27T08:09:03.587Z,-0.44
2022-11-27T08:10:03.747Z,-0.38
2022-11-27T08:11:03.832Z,-0.38
2022-11-27T08:12:04.069Z,-0.38
2022-11-27T08:13:04.144Z,-0.31
2022-11-27T08:14:04.143Z,-0.31
2022-11-27T08:15:04.146Z,-0.25
2022-11-27T08:16:04.096Z,-0.25
2022-11-27T08:17:04.068Z,-0.25
2022-11-27T08:18:04.144Z,-0.19
2022-11-27T08:19:04.154Z,-0.12
2022-11-27T08:20:04.152Z,-0.12
2022-11-27T08:21:04.059Z,-0.06
2022-11-27T08:22:04.145Z,-0.06
2022-11-27T08:23:04.301Z,0.00
2022-11-27T08:24:04.260Z,0.06
2022-11-27T08:25:04.062Z,0.12
2022-11-27T08:26:04.070Z,0.12
2022-11-27T08:27:04.152Z,0.19
2022-11-27T08:28:04.070Z,0.25
2022-11-27T08:29:03.986Z,0.25
2022-11-27T08:30:03.911Z,0.31
2022-11-27T08:31:03.826Z,0.38
2022-11-27T08:32:04.047Z,0.44
2022-11-27T08:33:04.063Z,0.44
2022-11-27T08:34:04.225Z,0.50
2022-11-27T08:35:04.167Z,0.56
2022-11-27T08:36:03.979Z,0.56
2022-11-27T08:37:03.904Z,0.62
2022-11-27T08:38:03.820Z,0.62
2022-11-27T08:39:03.773Z,0.69
2022-11-27T08:40:03.750Z,0.69
2022-11-27T08:41:03.584Z,0.75
2022-11-27T08:42:03.585Z,0.75
2022-11-27T08:43:03.744Z,0.81
2022-11-27T08:44:08.004Z,0.88
2022-11-27T08:45:03.584Z,0.88
2022-11-27T08:46:03.845Z,0.88
2022-11-27T08:47:03.834Z,0.94
2022-11-27T08:48:03.661Z,0.94
2022-11-27T08:49:03.586Z,0.94
2022-11-27T08:50:03.515Z,1.00
2022-11-27T08:51:04.394Z,1.00
2022-11-27T08:52:04.385Z,1.06
2022-11-27T08:53:04.472Z,1.06
2022-11-27T08:54:04.387Z,1.12
2022-11-27T08:55:03.418Z,1.12
2022-11-27T08:56:03.589Z,1.19
2022-11-27T08:57:03.501Z,1.19
2022-11-27T08:58:03.840Z,1.19
2022-11-27T08:59:03.912Z,1.25
2022-11-27T09:00:04.411Z,1.25
2022-11-27T09:01:04.400Z,1.31
2022-11-27T09:02:04.470Z,1.31
2022-11-27T09:03:04.380Z,1.38
2022-11-27T09:04:03.468Z,1.38
2022-11-27T09:05:04.424Z,1.44
2022-11-27T09:06:04.423Z,1.44
2022-11-27T09:07:04.390Z,1.50
2022-11-27T09:08:04.523Z,1.50
2022-11-27T09:09:04.533Z,1.50
2022-11-27T09:10:04.387Z,1.56
2022-11-27T09:11:04.404Z,1.56
2022-11-27T09:12:04.235Z,1.62
2022-11-27T09:13:04.328Z,1.62
2022-11-27T09:14:04.144Z,1.69
2022-11-27T09:15:04.147Z,1.69
2022-11-27T09:16:04.242Z,1.75
2022-11-27T09:17:04.215Z,1.75
2022-11-27T09:18:04.260Z,1.81
2022-11-27T09:19:04.067Z,1.81
2022-11-27T09:20:04.073Z,1.88
2022-11-27T09:21:03.988Z,1.94
2022-11-27T09:22:03.909Z,1.94
2022-11-27T09:23:03.989Z,1.94
2022-11-27T09:24:04.092Z,2.00
2022-11-27T09:25:04.250Z,2.00
2022-11-27T09:26:04.184Z,2.06
2022-11-27T09:27:04.313Z,2.12
2022-11-27T09:28:04.416Z,2.12
2022-11-27T09:29:04.413Z,2.19
2022-11-27T09:30:04.250Z,2.19
2022-11-27T09:31:04.231Z,2.25
2022-11-27T09:32:04.392Z,2.25
2022-11-27T09:33:03.612Z,2.31
2022-11-27T09:34:03.515Z,2.31
2022-11-27T09:35:03.742Z,2.38
2022-11-27T09:36:03.975Z,2.38
2022-11-27T09:37:03.942Z,2.44
2022-11-27T09:38:03.778Z,2.44
2022-11-27T09:39:03.673Z,2.50
2022-11-27T09:40:03.774Z,2.50
2022-11-27T09:41:03.777Z,2.56
2022-11-27T09:42:03.833Z,2.56
2022-11-27T09:43:03.839Z,2.62
2022-11-27T09:44:04.186Z,2.69
2022-11-27T09:45:04.045Z,2.69
2022-11-27T09:46:04.074Z,2.75
2022-11-27T09:47:04.170Z,2.75
2022-11-27T09:48:04.105Z,2.81
2022-11-27T09:49:04.075Z,2.81
2022-11-27T09:50:04.097Z,2.88
2022-11-27T09:51:03.981Z,2.88
2022-11-27T09:52:04.143Z,2.94
2022-11-27T09:53:04.327Z,2.94
2022-11-27T09:54:04.171Z,3.00
2022-11-27T09:55:03.983Z,3.00
2022-11-27T09:56:04.096Z,3.06
2022-11-27T09:57:04.248Z,3.06
2022-11-27T09:58:04.331Z,3.12
2022-11-27T09:59:04.390Z,3.19
2022-11-27T10:00:03.606Z,3.19
2022-11-27T10:01:03.602Z,3.25
2022-11-27T10:02:03.526Z,3.25
2022-11-27T10:03:04.528Z,3.31
2022-11-27T10:04:04.302Z,3.31
2022-11-27T10:05:15.213Z,3.38
2022-11-27T10:06:04.234Z,3.44
2022-11-27T10:07:04.140Z,3.44
2022-11-27T10:08:06.819Z,3.50
2022-11-27T10:09:03.919Z,3.56
2022-11-27T10:10:03.898Z,3.62
2022-11-27T10:11:04.069Z,3.69
2022-11-27T10:12:03.995Z,3.69
2022-11-27T10:13:04.069Z,3.69
2022-11-27T10:14:04.231Z,3.75
2022-11-27T10:15:04.166Z,3.81
2022-11-27T10:16:04.134Z,3.81
2022-11-27T10:17:04.220Z,3.88
2022-11-27T10:18:04.234Z,3.94
2022-11-27T10:19:04.240Z,4.00
2022-11-27T10:20:04.344Z,4.06
2022-11-27T10:21:04.310Z,4.06
2022-11-27T10:22:04.438Z,4.12
2022-11-27T10:23:04.315Z,4.12
2022-11-27T10:24:04.305Z,4.12
2022-11-27T10:25:04.234Z,4.19
2022-11-27T10:26:04.234Z,4.19
2022-11-27T10:27:04.243Z,4.25
2022-11-27T10:28:04.376Z,4.31
2022-11-27T10:29:04.616Z,4.31
2022-11-27T10:30:04.496Z,4.38
2022-11-27T10:31:03.612Z,4.38
2022-11-27T10:32:03.812Z,4.44
2022-11-27T10:33:03.718Z,4.50
2022-11-27T10:34:03.436Z,4.50
2022-11-27T10:35:04.396Z,4.56
2022-11-27T10:36:03.917Z,4.62
2022-11-27T10:37:04.155Z,4.62
2022-11-27T10:38:06.904Z,4.62
2022-11-27T10:39:04.395Z,4.69
2022-11-27T10:40:04.469Z,4.69
2022-11-27T10:41:04.395Z,4.75
2022-11-27T10:42:04.339Z,4.81
2022-11-27T10:43:04.402Z,4.81
2022-11-27T10:44:04.310Z,4.88
2022-11-27T10:45:04.315Z,4.88
2022-11-27T10:46:04.456Z,4.94
2022-11-27T10:47:04.307Z,4.94
2022-11-27T10:48:04.306Z,5.00
2022-11-27T10:49:04.155Z,5.00
2022-11-27T10:50:04.072Z,5.00
2022-11-27T10:51:04.066Z,5.06
2022-11-27T10:52:03.986Z,5.06
2022-11-27T10:53:04.019Z,5.12
2022-11-27T10:54:03.985Z,5.12
2022-11-27T10:55:04.155Z,5.19
2022-11-27T10:56:04.154Z,5.25
2022-11-27T10:57:04.069Z,5.25
2022-11-27T10:58:03.996Z,5.31
2022-11-27T10:59:04.069Z,5.31
2022-11-27T11:00:03.906Z,5.38
2022-11-27T11:01:04.245Z,5.38
2022-11-27T11:02:04.051Z,5.44
2022-11-27T11:03:04.146Z,5.44
2022-11-27T11:04:14.184Z,5.50
2022-11-27T11:05:31.083Z,5.50
2022-11-27T11:06:19.700Z,5.56
2022-11-27T11:07:04.152Z,5.56
2022-11-27T11:08:04.156Z,5.62
2022-11-27T11:09:04.063Z,5.62
2022-11-27T11:10:04.151Z,5.69
2022-11-27T11:11:04.146Z,5.69
2022-11-27T11:12:04.066Z,5.75
2022-11-27T11:13:04.343Z,5.75
2022-11-27T11:14:04.535Z,5.81
2022-11-27T11:15:04.149Z,5.81
2022-11-27T11:16:04.311Z,5.81
2022-11-27T11:17:04.369Z,5.88
2022-11-27T11:18:04.489Z,5.88
2022-11-27T11:19:03.680Z,5.94
2022-11-27T11:20:03.671Z,5.94
2022-11-27T11:21:03.804Z,5.94
2022-11-27T11:22:03.902Z,6.00
2022-11-27T11:23:09.059Z,6.00
2022-11-27T11:24:04.203Z,6.00
2022-11-27T11:25:04.342Z,6.06
2022-11-27T11:26:04.308Z,6.06
2022-11-27T11:27:04.462Z,6.12
2022-11-27T11:28:09.492Z,6.12
2022-11-27T11:29:04.492Z,6.19
2022-11-27T11:30:04.382Z,6.19
2022-11-27T11:31:09.476Z,6.19
2022-11-27T11:32:04.390Z,6.25
2022-11-27T11:33:04.388Z,6.25
2022-11-27T11:34:04.474Z,6.25
2022-11-27T11:35:03.445Z,6.31
2022-11-27T11:36:03.624Z,6.31
2022-11-27T11:37:03.808Z,6.31
2022-11-27T11:38:04.034Z,6.38
2022-11-27T11:39:04.158Z,6.38
2022-11-27T11:40:04.260Z,6.38
2022-11-27T11:41:04.073Z,6.38
2022-11-27T11:42:04.242Z,6.44
2022-11-27T11:43:04.245Z,6.44
2022-11-27T11:44:04.290Z,6.44
2022-11-27T11:45:04.407Z,6.44
2022-11-27T11:46:04.434Z,6.50
2022-11-27T11:47:04.471Z,6.50
2022-11-27T11:48:04.540Z,6.50
2022-11-27T11:49:09.396Z,6.50
2022-11-27T11:50:04.405Z,6.56
2022-11-27T11:51:03.429Z,6.56
2022-11-27T11:52:03.861Z,6.56
2022-11-27T11:53:03.922Z,6.56
2022-11-27T11:54:03.987Z,6.62
2022-11-27T11:55:04.162Z,6.62
2022-11-27T11:56:04.351Z,6.62
2022-11-27T11:57:04.182Z,6.62
2022-11-27T11:58:04.412Z,6.69
2022-11-27T11:59:04.454Z,6.69
2022-11-27T12:00:04.308Z,6.69
2022-11-27T12:01:25.777Z,6.69
2022-11-27T12:02:03.563Z,6.75
2022-11-27T12:03:03.762Z,6.75
2022-11-27T12:04:03.797Z,6.75
2022-11-27T12:05:04.024Z,6.75
2022-11-27T12:06:04.528Z,6.81
2022-11-27T12:07:04.001Z,6.81
2022-11-27T12:08:09.217Z,6.81
2022-11-27T12:09:04.193Z,6.81
2022-11-27T12:10:04.309Z,6.88
2022-11-27T12:11:04.441Z,6.88
2022-11-27T12:12:04.357Z,6.88
2022-11-27T12:13:04.411Z,6.88
2022-11-27T12:14:03.868Z,6.88
2022-11-27T12:15:03.748Z,6.88
2022-11-27T12:16:04.010Z,6.88
2022-11-27T12:17:04.072Z,6.88
2022-11-27T12:18:04.504Z,6.88
2022-11-27T12:19:04.238Z,6.94
2022-11-27T12:20:04.412Z,6.94
2022-11-27T12:21:04.313Z,6.94
2022-11-27T12:22:04.395Z,6.94
2022-11-27T12:23:04.470Z,6.94
2022-11-27T12:24:03.431Z,6.94
2022-11-27T12:25:03.672Z,6.94
2022-11-27T12:26:03.948Z,6.94
2022-11-27T12:27:04.024Z,7.00
2022-11-27T12:28:04.264Z,7.00
2022-11-27T12:29:04.320Z,7.00
2022-11-27T12:30:04.303Z,7.00
2022-11-27T12:31:04.567Z,7.00
2022-11-27T12:32:03.827Z,7.00
2022-11-27T12:33:03.670Z,7.00
2022-11-27T12:34:04.080Z,7.00
2022-11-27T12:35:04.120Z,7.00
2022-11-27T12:36:04.155Z,7.00
2022-11-27T12:37:04.251Z,7.00
2022-11-27T12:38:04.446Z,7.00
2022-11-27T12:39:09.421Z,7.00
2022-11-27T12:40:04.399Z,7.00
2022-11-27T12:41:04.532Z,7.00
2022-11-27T12:42:04.422Z,7.00
2022-11-27T12:43:03.462Z,7.00
2022-11-27T12:44:03.683Z,7.00
2022-11-27T12:45:03.837Z,7.00
2022-11-27T12:46:09.165Z,7.00
2022-11-27T12:47:04.171Z,7.00
2022-11-27T12:48:04.083Z,7.00
2022-11-27T12:49:04.233Z,7.00
2022-11-27T12:50:04.430Z,7.00
2022-11-27T12:51:04.398Z,7.00
2022-11-27T12:52:03.452Z,7.00
2022-11-27T12:53:03.671Z,7.00
2022-11-27T12:54:03.601Z,7.00
2022-11-27T12:55:03.595Z,7.00
2022-11-27T12:56:03.521Z,7.00
2022-11-27T12:57:04.387Z,7.00
2022-11-27T12:58:04.394Z,7.00
2022-11-27T12:59:04.302Z,7.00
2022-11-27T13:00:04.227Z,7.00
2022-11-27T13:01:04.368Z,7.00
2022-11-27T13:02:04.346Z,7.00
2022-11-27T13:03:04.237Z,6.94
2022-11-27T13:04:04.149Z,7.00